Terminal Aerodrome Forecast
Issued by NWS Cleveland, OH

Home | Current Version | Previous Version | Graphics & Text | Print | Product List | Glossary On
Versions: 1 2 3 4 5 6 7 8 9 10 11 12 13 14 15 16 17 18 19 20 21 22 23
216
FTUS41 KCLE 170259 AAB
TAFCAK
TAF AMD
KCAK 170259Z 1703/1724 VRB03KT P6SM BKN030
      TEMPO 1703/1707 BKN035
     FM170800 VRB02KT 6SM BR FEW008 BKN018
      TEMPO 1709/1713 4SM BR
     FM171500 17007KT P6SM BKN022
     FM172300 20009KT P6SM VCSH SCT060 OVC100=

USA.gov is the U.S. government's official web portal to all federal, state and local government web resources and services.